createdAt,value
2022-11-08T00:00:30.767Z,45.57
2022-11-08T00:01:30.824Z,52.53
2022-11-08T00:02:30.938Z,50.24
2022-11-08T00:03:30.754Z,44.55
2022-11-08T00:04:30.761Z,38.36
2022-11-08T00:05:30.727Z,45.11
2022-11-08T00:06:30.717Z,41.63
2022-11-08T00:07:30.719Z,48.95
2022-11-08T00:08:30.705Z,36.62
2022-11-08T00:09:30.724Z,36.64
2022-11-08T00:10:30.693Z,59.45
2022-11-08T00:11:30.683Z,58.62
2022-11-08T00:12:30.673Z,43.27
2022-11-08T00:13:30.667Z,50.78
2022-11-08T00:14:30.807Z,49.58
2022-11-08T00:15:30.644Z,44.14
2022-11-08T00:16:30.648Z,45.65
2022-11-08T00:17:30.636Z,53.42
2022-11-08T00:18:30.629Z,37.37
2022-11-08T00:19:30.641Z,54.97
2022-11-08T00:20:30.609Z,64.77
2022-11-08T00:21:30.610Z,58.73
2022-11-08T00:22:30.598Z,57.18
2022-11-08T00:23:30.602Z,39.53
2022-11-08T00:24:30.607Z,44.04
2022-11-08T00:25:30.581Z,53.23
2022-11-08T00:26:30.563Z,51.62
2022-11-08T00:27:30.553Z,45.25
2022-11-08T00:28:30.551Z,44.69
2022-11-08T00:29:30.563Z,49.47
2022-11-08T00:30:30.531Z,40.18
2022-11-08T00:31:30.530Z,63.92
2022-11-08T00:32:30.522Z,54.21
2022-11-08T00:33:30.517Z,39.06
2022-11-08T00:34:30.528Z,47.39
2022-11-08T00:35:30.496Z,60.55
2022-11-08T00:36:30.482Z,54.29
2022-11-08T00:37:30.489Z,47.24
2022-11-08T00:38:30.468Z,53.03
2022-11-08T00:39:30.485Z,62.09
2022-11-08T00:40:30.458Z,44.67
2022-11-08T00:41:30.456Z,52.52
2022-11-08T00:42:30.435Z,56.16
2022-11-08T00:43:30.435Z,57.45
2022-11-08T00:44:30.448Z,53.02
2022-11-08T00:45:30.426Z,40.56
2022-11-08T00:46:30.404Z,52.24
2022-11-08T00:47:30.402Z,52.63
2022-11-08T00:48:30.407Z,45.84
2022-11-08T00:49:30.414Z,48.76
2022-11-08T00:50:30.383Z,55.64
2022-11-08T00:51:30.368Z,51.91
2022-11-08T00:52:30.356Z,36.59
2022-11-08T00:53:30.354Z,39.54
2022-11-08T00:54:30.371Z,53.39
2022-11-08T00:55:30.337Z,60.88
2022-11-08T00:56:30.335Z,56.07
2022-11-08T00:57:53.577Z,57.26
2022-11-08T00:58:32.314Z,49.63
2022-11-08T00:59:30.365Z,43.28
2022-11-08T01:00:30.302Z,43.67
2022-11-08T01:01:30.435Z,45.97
2022-11-08T01:02:30.338Z,63.18
2022-11-08T01:03:30.287Z,55.90
2022-11-08T01:04:30.297Z,44.20
2022-11-08T01:05:30.265Z,57.71
2022-11-08T01:06:30.260Z,40.90
2022-11-08T01:07:30.252Z,56.62
2022-11-08T01:08:30.236Z,47.63
2022-11-08T01:09:30.262Z,52.49
2022-11-08T01:10:30.227Z,62.98
2022-11-08T01:11:30.213Z,49.24
2022-11-08T01:12:30.206Z,54.97
2022-11-08T01:13:30.192Z,62.67
2022-11-08T01:14:30.219Z,58.06
2022-11-08T01:15:30.291Z,39.15
2022-11-08T01:16:30.177Z,45.41
2022-11-08T01:17:30.169Z,60.95
2022-11-08T01:18:30.165Z,54.02
2022-11-08T01:19:30.171Z,53.96
2022-11-08T01:20:30.148Z,50.78
2022-11-08T01:21:30.135Z,42.31
2022-11-08T01:22:30.136Z,36.78
2022-11-08T01:23:30.124Z,44.58
2022-11-08T01:24:30.145Z,45.19
2022-11-08T01:25:30.127Z,52.29
2022-11-08T01:26:30.117Z,57.67
2022-11-08T01:27:30.090Z,57.66
2022-11-08T01:28:30.087Z,50.71
2022-11-08T01:29:30.104Z,51.71
2022-11-08T01:30:30.070Z,52.57
2022-11-08T01:31:30.060Z,41.66
2022-11-08T01:32:30.053Z,57.38
2022-11-08T01:33:30.045Z,50.98
2022-11-08T01:34:30.069Z,46.52
2022-11-08T01:35:30.032Z,53.29
2022-11-08T01:36:30.035Z,54.13
2022-11-08T01:37:30.018Z,57.03
2022-11-08T01:38:30.007Z,57.14
2022-11-08T01:39:30.031Z,53.92
2022-11-08T01:40:29.992Z,51.10
2022-11-08T01:41:29.975Z,51.99
2022-11-08T01:42:29.974Z,62.37
2022-11-08T01:43:29.968Z,52.52
2022-11-08T01:44:29.995Z,59.47
2022-11-08T01:45:29.953Z,63.66
2022-11-08T01:46:29.947Z,56.17
2022-11-08T01:47:29.937Z,57.69
2022-11-08T01:48:29.926Z,54.54
2022-11-08T01:49:29.920Z,41.98
2022-11-08T01:50:29.932Z,39.65
2022-11-08T01:51:29.903Z,56.32
2022-11-08T01:52:29.890Z,55.41
2022-11-08T01:53:29.887Z,37.46
2022-11-08T01:54:29.877Z,40.25
2022-11-08T01:55:29.891Z,54.48
2022-11-08T01:56:29.862Z,47.80
2022-11-08T01:57:29.853Z,50.78
2022-11-08T01:58:29.848Z,50.84
2022-11-08T01:59:29.839Z,42.33
2022-11-08T02:00:29.852Z,57.00
2022-11-08T02:01:29.943Z,52.05
2022-11-08T02:02:29.833Z,64.19
2022-11-08T02:03:29.802Z,61.92
2022-11-08T02:04:29.788Z,58.16
2022-11-08T02:05:30.815Z,63.82
2022-11-08T02:06:29.777Z,56.95
2022-11-08T02:07:29.775Z,55.86
2022-11-08T02:08:29.757Z,50.96
2022-11-08T02:09:29.768Z,54.51
2022-11-08T02:10:29.782Z,55.53
2022-11-08T02:11:29.745Z,58.04
2022-11-08T02:12:29.739Z,61.47
2022-11-08T02:13:29.730Z,52.18
2022-11-08T02:14:29.725Z,54.30
2022-11-08T02:15:29.744Z,65.40
2022-11-08T02:16:29.701Z,54.60
2022-11-08T02:17:29.704Z,52.33
2022-11-08T02:18:29.688Z,64.02
2022-11-08T02:19:29.686Z,50.09
2022-11-08T02:20:29.702Z,57.69
2022-11-08T02:21:29.666Z,58.68
2022-11-08T02:22:29.659Z,61.11
2022-11-08T02:23:29.660Z,63.03
2022-11-08T02:24:29.646Z,57.22
2022-11-08T02:25:29.661Z,64.07
2022-11-08T02:26:29.630Z,63.97
2022-11-08T02:27:29.619Z,59.67
2022-11-08T02:28:29.611Z,61.43
2022-11-08T02:29:29.606Z,45.95
2022-11-08T02:30:29.623Z,58.83
2022-11-08T02:31:29.593Z,67.27
2022-11-08T02:32:29.588Z,61.44
2022-11-08T02:33:29.573Z,60.03
2022-11-08T02:34:29.574Z,49.76
2022-11-08T02:35:29.585Z,59.23
2022-11-08T02:36:29.550Z,54.89
2022-11-08T02:37:29.542Z,43.51
2022-11-08T02:38:29.535Z,42.35
2022-11-08T02:39:29.530Z,48.61
2022-11-08T02:40:29.547Z,54.93
2022-11-08T02:41:29.514Z,52.43
2022-11-08T02:42:29.503Z,58.31
2022-11-08T02:43:29.500Z,54.76
2022-11-08T02:44:29.490Z,52.18
2022-11-08T02:45:29.499Z,59.34
2022-11-08T02:46:29.481Z,56.08
2022-11-08T02:47:29.466Z,43.62
2022-11-08T02:48:29.453Z,43.08
2022-11-08T02:49:29.455Z,50.67
2022-11-08T02:50:29.467Z,58.56
2022-11-08T02:51:29.438Z,53.25
2022-11-08T02:52:29.424Z,58.37
2022-11-08T02:53:29.418Z,56.47
2022-11-08T02:54:29.423Z,57.15
2022-11-08T02:55:29.432Z,61.61
2022-11-08T02:56:29.392Z,57.28
2022-11-08T02:57:29.387Z,57.18
2022-11-08T02:58:29.379Z,55.11
2022-11-08T02:59:29.368Z,56.82
2022-11-08T03:00:29.386Z,58.45
2022-11-08T03:01:29.441Z,51.84
2022-11-08T03:02:29.390Z,52.46
2022-11-08T03:03:29.336Z,55.76
2022-11-08T03:04:30.338Z,58.87
2022-11-08T03:05:29.354Z,57.17
2022-11-08T03:06:29.320Z,53.83
2022-11-08T03:07:29.309Z,51.36
2022-11-08T03:08:29.295Z,59.55
2022-11-08T03:09:29.294Z,60.82
2022-11-08T03:10:29.401Z,57.25
2022-11-08T03:11:29.292Z,64.68
2022-11-08T03:12:29.265Z,58.45
2022-11-08T03:13:29.252Z,56.08
2022-11-08T03:14:29.255Z,51.15
2022-11-08T03:15:29.275Z,56.62
2022-11-08T03:16:29.238Z,60.27
2022-11-08T03:17:29.234Z,62.27
2022-11-08T03:18:29.232Z,55.19
2022-11-08T03:19:29.233Z,57.30
2022-11-08T03:20:32.701Z,58.07
2022-11-08T03:21:30.199Z,57.71
2022-11-08T03:22:29.190Z,51.38
2022-11-08T03:23:29.183Z,51.14
2022-11-08T03:24:29.174Z,59.97
2022-11-08T03:25:29.219Z,63.79
2022-11-08T03:26:29.150Z,60.40
2022-11-08T03:27:29.148Z,58.80
2022-11-08T03:28:29.468Z,57.52
2022-11-08T03:29:29.134Z,52.40
2022-11-08T03:30:29.155Z,61.20
2022-11-08T03:31:29.117Z,61.10
2022-11-08T03:32:29.111Z,61.61
2022-11-08T03:33:29.104Z,62.21
2022-11-08T03:34:29.094Z,56.31
2022-11-08T03:35:29.087Z,66.74
2022-11-08T03:36:29.105Z,61.70
2022-11-08T03:37:29.075Z,62.41
2022-11-08T03:38:29.063Z,60.47
2022-11-08T03:39:29.056Z,52.61
2022-11-08T03:40:29.038Z,57.88
2022-11-08T03:41:29.059Z,63.19
2022-11-08T03:42:29.031Z,59.02
2022-11-08T03:43:29.024Z,61.33
2022-11-08T03:44:29.015Z,62.89
2022-11-08T03:45:29.006Z,57.41
2022-11-08T03:46:29.023Z,62.94
2022-11-08T03:47:28.991Z,61.95
2022-11-08T03:48:28.985Z,57.79
2022-11-08T03:49:28.982Z,55.76
2022-11-08T03:50:28.973Z,57.14
2022-11-08T03:51:28.984Z,61.63
2022-11-08T03:52:28.952Z,63.01
2022-11-08T03:53:28.946Z,63.68
2022-11-08T03:54:28.937Z,59.31
2022-11-08T03:55:28.933Z,62.85
2022-11-08T03:56:28.945Z,65.04
2022-11-08T03:57:28.913Z,62.47
2022-11-08T03:58:29.031Z,63.22
2022-11-08T03:59:28.900Z,61.65
2022-11-08T04:00:28.888Z,66.33
2022-11-08T04:01:28.970Z,63.07
2022-11-08T04:02:28.930Z,61.54
2022-11-08T04:03:28.867Z,64.01
2022-11-08T04:04:28.858Z,58.49
2022-11-08T04:05:28.854Z,61.65
2022-11-08T04:06:28.860Z,58.41
2022-11-08T04:07:28.837Z,64.29
2022-11-08T04:08:28.823Z,59.89
2022-11-08T04:09:28.824Z,64.85
2022-11-08T04:10:28.800Z,62.01
2022-11-08T04:11:28.821Z,63.93
2022-11-08T04:12:28.791Z,54.43
2022-11-08T04:13:28.795Z,60.89
2022-11-08T04:14:28.774Z,59.86
2022-11-08T04:15:28.772Z,66.14
2022-11-08T04:16:28.839Z,63.11
2022-11-08T04:17:28.763Z,62.90
2022-11-08T04:18:28.748Z,64.43
2022-11-08T04:19:28.740Z,63.92
2022-11-08T04:20:28.731Z,61.71
2022-11-08T04:21:28.752Z,65.85
2022-11-08T04:22:28.713Z,60.56
2022-11-08T04:23:28.715Z,59.08
2022-11-08T04:24:28.698Z,58.71
2022-11-08T04:25:33.940Z,63.68
2022-11-08T04:26:30.716Z,60.70
2022-11-08T04:27:28.674Z,61.19
2022-11-08T04:28:28.672Z,63.49
2022-11-08T04:29:28.667Z,60.90
2022-11-08T04:30:28.656Z,63.97
2022-11-08T04:31:28.675Z,59.64
2022-11-08T04:32:28.638Z,62.50
2022-11-08T04:33:28.637Z,63.17
2022-11-08T04:34:28.621Z,63.37
2022-11-08T04:35:28.617Z,64.01
2022-11-08T04:36:28.644Z,63.22
2022-11-08T04:37:28.594Z,62.92
2022-11-08T04:38:28.593Z,62.41
2022-11-08T04:39:28.586Z,63.38
2022-11-08T04:40:28.577Z,63.57
2022-11-08T04:41:28.591Z,66.13
2022-11-08T04:42:28.552Z,64.31
2022-11-08T04:43:29.546Z,63.79
2022-11-08T04:44:28.544Z,66.66
2022-11-08T04:45:28.524Z,62.52
2022-11-08T04:46:28.550Z,65.33
2022-11-08T04:47:28.509Z,66.41
2022-11-08T04:48:28.512Z,65.78
2022-11-08T04:49:28.507Z,63.59
2022-11-08T04:50:28.493Z,62.58
2022-11-08T04:51:28.519Z,65.35
2022-11-08T04:52:28.483Z,65.59
2022-11-08T04:53:28.468Z,64.14
2022-11-08T04:54:28.464Z,61.35
2022-11-08T04:55:28.455Z,62.07
2022-11-08T04:56:28.469Z,62.56
2022-11-08T04:57:28.438Z,60.61
2022-11-08T04:58:28.434Z,64.01
2022-11-08T04:59:28.423Z,63.93
2022-11-08T05:00:28.414Z,62.90
2022-11-08T05:01:28.585Z,61.97
2022-11-08T05:02:28.541Z,62.99
2022-11-08T05:03:28.387Z,62.65
2022-11-08T05:04:28.380Z,59.04
2022-11-08T05:05:28.374Z,62.23
2022-11-08T05:06:28.383Z,62.35
2022-11-08T05:07:28.358Z,65.87
2022-11-08T05:08:28.346Z,64.41
2022-11-08T05:09:28.338Z,63.89
2022-11-08T05:10:28.330Z,64.70
2022-11-08T05:11:28.351Z,61.51
2022-11-08T05:12:28.314Z,64.98
2022-11-08T05:13:28.308Z,65.96
2022-11-08T05:14:28.304Z,66.35
2022-11-08T05:15:28.288Z,64.57
2022-11-08T05:16:28.319Z,62.35
2022-11-08T05:17:28.279Z,63.79
2022-11-08T05:18:28.542Z,65.29
2022-11-08T05:19:28.263Z,67.45
2022-11-08T05:20:28.257Z,65.52
2022-11-08T05:21:28.249Z,64.83
2022-11-08T05:22:28.262Z,66.58
2022-11-08T05:23:28.235Z,65.10
2022-11-08T05:24:28.214Z,64.91
2022-11-08T05:25:28.208Z,66.15
2022-11-08T05:26:28.204Z,65.09
2022-11-08T05:27:28.224Z,62.62
2022-11-08T05:28:28.190Z,63.13
2022-11-08T05:29:28.178Z,64.51
2022-11-08T05:30:28.169Z,65.62
2022-11-08T05:31:28.161Z,64.02
2022-11-08T05:32:28.180Z,66.45
2022-11-08T05:33:28.154Z,66.58
2022-11-08T05:34:28.138Z,66.11
2022-11-08T05:35:28.129Z,63.42
2022-11-08T05:36:28.136Z,65.67
2022-11-08T05:37:28.142Z,65.35
2022-11-08T05:38:28.103Z,63.06
2022-11-08T05:39:31.868Z,64.00
2022-11-08T05:40:33.166Z,66.58
2022-11-08T05:41:29.080Z,66.32
2022-11-08T05:42:28.099Z,66.58
2022-11-08T05:43:28.065Z,67.21
2022-11-08T05:44:28.055Z,65.46
2022-11-08T05:45:28.048Z,65.94
2022-11-08T05:46:28.043Z,65.75
2022-11-08T05:47:28.058Z,66.49
2022-11-08T05:48:28.027Z,65.45
2022-11-08T05:49:28.019Z,66.65
2022-11-08T05:50:28.011Z,66.36
2022-11-08T05:51:28.001Z,65.25
2022-11-08T05:52:28.017Z,64.82
2022-11-08T05:53:27.985Z,65.27
2022-11-08T05:54:27.981Z,65.34
2022-11-08T05:55:27.970Z,64.14
2022-11-08T05:56:27.963Z,65.92
2022-11-08T05:57:27.980Z,66.31
2022-11-08T05:58:27.951Z,64.66
2022-11-08T05:59:27.942Z,63.82
2022-11-08T06:00:27.939Z,64.00
2022-11-08T06:01:27.985Z,65.58
2022-11-08T06:02:29.049Z,65.26
2022-11-08T06:03:28.287Z,67.02
2022-11-08T06:04:27.899Z,65.37
2022-11-08T06:05:27.892Z,67.12
2022-11-08T06:06:27.883Z,65.98
2022-11-08T06:07:27.899Z,64.77
2022-11-08T06:08:27.865Z,62.97
2022-11-08T06:09:27.872Z,63.67
2022-11-08T06:10:27.849Z,64.11
2022-11-08T06:11:27.844Z,65.12
2022-11-08T06:12:27.863Z,64.36
2022-11-08T06:13:28.230Z,65.22
2022-11-08T06:14:27.818Z,63.01
2022-11-08T06:15:27.807Z,63.58
2022-11-08T06:16:27.803Z,65.95
2022-11-08T06:17:30.227Z,64.80
2022-11-08T06:18:28.790Z,64.32
2022-11-08T06:19:27.781Z,65.03
2022-11-08T06:20:27.778Z,65.52
2022-11-08T06:21:27.764Z,65.87
2022-11-08T06:22:27.780Z,67.06
2022-11-08T06:23:27.746Z,63.63
2022-11-08T06:24:27.736Z,63.19
2022-11-08T06:25:27.732Z,64.19
2022-11-08T06:26:27.722Z,64.43
2022-11-08T06:27:27.745Z,62.84
2022-11-08T06:28:27.706Z,63.48
2022-11-08T06:29:27.701Z,64.41
2022-11-08T06:30:27.685Z,67.98
2022-11-08T06:31:27.681Z,65.81
2022-11-08T06:32:27.702Z,65.92
2022-11-08T06:33:27.662Z,61.30
2022-11-08T06:34:27.650Z,63.66
2022-11-08T06:35:27.643Z,65.88
2022-11-08T06:36:27.640Z,62.83
2022-11-08T06:37:27.632Z,64.15
2022-11-08T06:38:27.649Z,64.30
2022-11-08T06:39:27.614Z,64.71
2022-11-08T06:40:27.608Z,62.85
2022-11-08T06:41:27.600Z,64.12
2022-11-08T06:42:27.592Z,65.75
2022-11-08T06:43:28.068Z,63.51
2022-11-08T06:44:27.571Z,62.54
2022-11-08T06:45:27.568Z,62.99
2022-11-08T06:46:27.559Z,64.32
2022-11-08T06:47:27.571Z,62.36
2022-11-08T06:48:32.360Z,64.82
2022-11-08T06:49:29.533Z,64.30
2022-11-08T06:50:27.526Z,62.92
2022-11-08T06:51:27.521Z,63.44
2022-11-08T06:52:27.537Z,62.42
2022-11-08T06:53:27.510Z,64.77
2022-11-08T06:54:27.497Z,66.08
2022-11-08T06:55:27.519Z,63.32
2022-11-08T06:56:27.488Z,61.59
2022-11-08T06:57:27.508Z,61.78
2022-11-08T06:58:27.472Z,60.66
2022-11-08T06:59:27.460Z,59.20
2022-11-08T07:00:27.451Z,62.60
2022-11-08T07:01:27.585Z,63.43
2022-11-08T07:02:27.608Z,64.44
2022-11-08T07:03:27.424Z,61.02
2022-11-08T07:04:27.419Z,63.49
2022-11-08T07:05:27.413Z,61.54
2022-11-08T07:06:27.406Z,62.51
2022-11-08T07:07:27.417Z,62.91
2022-11-08T07:08:27.393Z,63.56
2022-11-08T07:09:27.375Z,62.30
2022-11-08T07:10:27.354Z,62.91
2022-11-08T07:11:28.360Z,62.98
2022-11-08T07:12:27.374Z,60.09
2022-11-08T07:13:28.342Z,61.65
2022-11-08T07:14:27.361Z,63.59
2022-11-08T07:15:27.330Z,60.55
2022-11-08T07:16:27.320Z,59.61
2022-11-08T07:17:27.347Z,62.76
2022-11-08T07:18:27.420Z,64.47
2022-11-08T07:19:27.307Z,63.14
2022-11-08T07:20:27.315Z,61.95
2022-11-08T07:21:27.283Z,63.08
2022-11-08T07:22:27.282Z,63.89
2022-11-08T07:23:27.313Z,62.87
2022-11-08T07:24:27.261Z,61.45
2022-11-08T07:25:27.250Z,63.23
2022-11-08T07:26:27.243Z,61.81
2022-11-08T07:27:27.237Z,62.26
2022-11-08T07:28:27.260Z,62.70
2022-11-08T07:29:27.220Z,63.07
2022-11-08T07:30:27.211Z,61.40
2022-11-08T07:31:27.208Z,61.68
2022-11-08T07:32:27.213Z,63.32
2022-11-08T07:33:27.214Z,63.95
2022-11-08T07:34:27.181Z,64.93
2022-11-08T07:35:27.176Z,61.31
2022-11-08T07:36:27.168Z,62.48
2022-11-08T07:37:27.156Z,62.84
2022-11-08T07:38:27.178Z,63.69
2022-11-08T07:39:27.140Z,61.40
2022-11-08T07:40:27.139Z,61.85
2022-11-08T07:41:27.138Z,65.33
2022-11-08T07:42:38.407Z,64.39
2022-11-08T07:43:29.495Z,60.07
2022-11-08T07:44:27.102Z,60.75
2022-11-08T07:45:27.096Z,60.59
2022-11-08T07:46:27.087Z,61.96
2022-11-08T07:47:27.074Z,61.03
2022-11-08T07:48:27.095Z,63.97
2022-11-08T07:49:27.060Z,63.27
2022-11-08T07:50:27.091Z,64.09
2022-11-08T07:51:27.042Z,60.71
2022-11-08T07:52:27.036Z,63.13
2022-11-08T07:53:27.054Z,63.93
2022-11-08T07:54:27.013Z,63.19
2022-11-08T07:55:27.013Z,63.10
2022-11-08T07:56:26.998Z,58.68
2022-11-08T07:57:26.996Z,63.42
2022-11-08T07:58:27.013Z,63.10
2022-11-08T07:59:26.981Z,62.93
2022-11-08T08:00:27.029Z,63.24
2022-11-08T08:01:27.048Z,61.27
2022-11-08T08:02:27.000Z,60.01
2022-11-08T08:03:27.003Z,64.04
2022-11-08T08:04:26.940Z,61.74
2022-11-08T08:05:26.934Z,59.99
2022-11-08T08:06:26.934Z,63.41
2022-11-08T08:07:26.919Z,60.73
2022-11-08T08:08:26.936Z,64.64
2022-11-08T08:09:26.903Z,63.15
2022-11-08T08:10:26.949Z,61.39
2022-11-08T08:11:32.376Z,62.28
2022-11-08T08:12:28.888Z,61.95
2022-11-08T08:13:26.915Z,63.85
2022-11-08T08:14:26.865Z,62.60
2022-11-08T08:15:26.878Z,60.90
2022-11-08T08:16:26.851Z,60.33
2022-11-08T08:17:26.849Z,62.99
2022-11-08T08:18:26.832Z,62.78
2022-11-08T08:19:26.848Z,60.80
2022-11-08T08:20:26.878Z,59.89
2022-11-08T08:21:26.810Z,61.77
2022-11-08T08:22:26.803Z,61.97
2022-11-08T08:23:26.791Z,60.65
2022-11-08T08:24:26.810Z,62.01
2022-11-08T08:25:26.779Z,62.31
2022-11-08T08:26:26.771Z,63.08
2022-11-08T08:27:26.760Z,61.59
2022-11-08T08:28:26.752Z,57.59
2022-11-08T08:29:26.771Z,59.94
2022-11-08T08:30:26.983Z,58.94
2022-11-08T08:31:26.724Z,58.08
2022-11-08T08:32:31.308Z,61.77
2022-11-08T08:33:29.047Z,57.82
2022-11-08T08:34:28.729Z,62.19
2022-11-08T08:35:26.741Z,58.25
2022-11-08T08:36:26.688Z,57.92
2022-11-08T08:37:26.676Z,59.61
2022-11-08T08:38:26.666Z,61.05
2022-11-08T08:39:26.687Z,58.72
2022-11-08T08:40:26.778Z,60.06
2022-11-08T08:41:26.644Z,63.38
2022-11-08T08:42:26.641Z,67.91
2022-11-08T08:43:26.627Z,61.92
2022-11-08T08:44:26.645Z,59.35
2022-11-08T08:45:26.623Z,62.20
2022-11-08T08:46:26.604Z,60.34
2022-11-08T08:47:26.618Z,60.46
2022-11-08T08:48:26.586Z,59.41
2022-11-08T08:49:26.630Z,60.63
2022-11-08T08:50:26.665Z,58.09
2022-11-08T08:51:26.562Z,58.39
2022-11-08T08:52:26.552Z,58.02
2022-11-08T08:53:26.561Z,60.77
2022-11-08T08:54:29.441Z,58.86
2022-11-08T08:55:27.573Z,60.90
2022-11-08T08:56:26.523Z,56.99
2022-11-08T08:57:26.516Z,56.70
2022-11-08T08:58:26.507Z,61.70
2022-11-08T09:01:43.808Z,55.38
2022-11-08T09:02:28.475Z,61.98
2022-11-08T09:03:26.468Z,62.42
2022-11-08T09:04:26.483Z,56.37
2022-11-08T09:05:26.452Z,58.81
2022-11-08T09:06:26.451Z,55.06
2022-11-08T09:07:26.437Z,61.66
2022-11-08T09:08:26.430Z,62.60
2022-11-08T09:09:26.449Z,60.96
2022-11-08T09:10:26.420Z,58.46
2022-11-08T09:11:26.425Z,60.01
2022-11-08T09:12:26.406Z,59.44
2022-11-08T09:13:26.393Z,61.36
2022-11-08T09:14:26.405Z,57.06
2022-11-08T09:15:26.381Z,59.81
2022-11-08T09:16:26.369Z,57.32
2022-11-08T09:17:26.375Z,60.73
2022-11-08T09:18:26.429Z,60.38
2022-11-08T09:19:26.372Z,58.30
2022-11-08T09:20:26.355Z,52.76
2022-11-08T09:21:26.333Z,57.93
2022-11-08T09:22:26.332Z,55.84
2022-11-08T09:23:26.317Z,56.54
2022-11-08T09:24:26.327Z,55.77
2022-11-08T09:25:26.295Z,60.39
2022-11-08T09:26:26.289Z,55.27
2022-11-08T09:27:26.282Z,61.88
2022-11-08T09:28:31.037Z,55.17
2022-11-08T09:29:28.294Z,59.86
2022-11-08T09:30:26.259Z,59.53
2022-11-08T09:31:26.255Z,54.37
2022-11-08T09:32:39.588Z,57.44
2022-11-08T09:33:28.236Z,56.32
2022-11-08T09:34:27.261Z,58.77
2022-11-08T09:35:26.222Z,57.51
2022-11-08T09:36:26.221Z,57.53
2022-11-08T09:37:26.208Z,54.77
2022-11-08T09:38:26.198Z,57.89
2022-11-08T09:39:26.222Z,58.99
2022-11-08T09:40:26.177Z,58.36
2022-11-08T09:41:27.183Z,58.35
2022-11-08T09:42:26.173Z,60.70
2022-11-08T09:43:26.160Z,53.15
2022-11-08T09:44:26.189Z,57.93
2022-11-08T09:45:26.146Z,54.35
2022-11-08T09:46:26.136Z,58.96
2022-11-08T09:47:26.132Z,57.53
2022-11-08T09:48:26.128Z,56.70
2022-11-08T09:49:26.143Z,57.93
2022-11-08T09:50:26.103Z,60.42
2022-11-08T09:51:26.102Z,54.36
2022-11-08T09:52:26.091Z,57.68
2022-11-08T09:53:26.080Z,56.49
2022-11-08T09:54:26.094Z,59.42
2022-11-08T09:55:26.063Z,53.89
2022-11-08T09:56:26.063Z,54.83
2022-11-08T09:57:26.054Z,58.24
2022-11-08T09:58:26.043Z,58.20
2022-11-08T09:59:26.063Z,56.79
2022-11-08T10:00:26.027Z,53.74
2022-11-08T10:01:27.469Z,56.60
2022-11-08T10:02:27.063Z,61.06
2022-11-08T10:03:26.000Z,60.04
2022-11-08T10:04:26.029Z,55.52
2022-11-08T10:05:26.021Z,57.30
2022-11-08T10:06:25.994Z,60.45
2022-11-08T10:07:26.026Z,56.70
2022-11-08T10:08:25.962Z,54.22
2022-11-08T10:09:25.980Z,56.25
2022-11-08T10:10:25.947Z,61.26
2022-11-08T10:11:25.939Z,55.21
2022-11-08T10:12:25.929Z,58.42
2022-11-08T10:13:25.921Z,52.80
2022-11-08T10:14:25.947Z,56.38
2022-11-08T10:15:25.911Z,59.88
2022-11-08T10:16:25.900Z,58.82
2022-11-08T10:17:25.891Z,56.31
2022-11-08T10:18:25.883Z,54.44
2022-11-08T10:19:25.915Z,63.73
2022-11-08T10:20:25.866Z,53.21
2022-11-08T10:21:25.856Z,60.26
2022-11-08T10:22:25.854Z,55.72
2022-11-08T10:23:25.846Z,58.54
2022-11-08T10:24:25.834Z,58.39
2022-11-08T10:25:25.853Z,51.50
2022-11-08T10:26:27.174Z,59.84
2022-11-08T10:27:26.805Z,60.37
2022-11-08T10:28:25.801Z,56.39
2022-11-08T10:29:25.796Z,53.66
2022-11-08T10:30:25.811Z,53.90
2022-11-08T10:31:25.779Z,56.14
2022-11-08T10:32:25.767Z,59.48
2022-11-08T10:33:25.758Z,53.94
2022-11-08T10:34:25.744Z,60.19
2022-11-08T10:35:26.772Z,59.00
2022-11-08T10:36:25.741Z,61.45
2022-11-08T10:37:25.879Z,58.60
2022-11-08T10:38:25.723Z,58.28
2022-11-08T10:39:25.716Z,57.95
2022-11-08T10:40:25.732Z,58.23
2022-11-08T10:41:25.703Z,58.35
2022-11-08T10:42:25.697Z,57.65
2022-11-08T10:43:25.688Z,57.52
2022-11-08T10:44:25.686Z,59.02
2022-11-08T10:45:25.697Z,59.95
2022-11-08T10:46:25.662Z,56.89
2022-11-08T10:47:25.652Z,55.53
2022-11-08T10:48:25.645Z,53.59
2022-11-08T10:49:25.642Z,59.91
2022-11-08T10:50:25.653Z,54.61
2022-11-08T10:51:25.631Z,59.28
2022-11-08T10:52:25.616Z,60.85
2022-11-08T10:53:25.614Z,54.78
2022-11-08T10:54:25.605Z,54.30
2022-11-08T10:55:25.622Z,55.38
2022-11-08T10:56:25.582Z,58.34
2022-11-08T10:57:25.595Z,57.85
2022-11-08T10:58:25.573Z,58.25
2022-11-08T10:59:25.568Z,56.95
2022-11-08T11:00:25.582Z,54.77
2022-11-08T11:01:25.594Z,54.13
2022-11-08T11:02:25.661Z,56.73
2022-11-08T11:03:25.539Z,57.83
2022-11-08T11:04:25.525Z,57.16
2022-11-08T11:05:25.546Z,57.01
2022-11-08T11:06:25.630Z,58.97
2022-11-08T11:07:25.506Z,55.66
2022-11-08T11:08:25.495Z,59.00
2022-11-08T11:09:25.490Z,57.16
2022-11-08T11:10:25.505Z,58.08
2022-11-08T11:11:25.479Z,56.61
2022-11-08T11:12:25.468Z,54.79
2022-11-08T11:13:25.459Z,59.39
2022-11-08T11:14:25.453Z,59.70
2022-11-08T11:15:25.469Z,58.59
2022-11-08T11:16:25.434Z,59.48
2022-11-08T11:17:25.430Z,56.58
2022-11-08T11:18:25.422Z,58.56
2022-11-08T11:19:25.419Z,59.23
2022-11-08T11:20:25.434Z,57.04
2022-11-08T11:21:25.568Z,56.36
2022-11-08T11:22:25.390Z,57.78
2022-11-08T11:23:25.382Z,61.80
2022-11-08T11:24:25.375Z,60.63
2022-11-08T11:25:25.394Z,56.22
2022-11-08T11:26:25.359Z,60.11
2022-11-08T11:27:25.356Z,59.64
2022-11-08T11:28:25.341Z,51.80
2022-11-08T11:29:26.334Z,61.33
2022-11-08T11:30:25.417Z,61.18
2022-11-08T11:31:25.321Z,60.91
2022-11-08T11:32:25.317Z,59.63
2022-11-08T11:33:25.384Z,58.99
2022-11-08T11:34:25.301Z,59.32
2022-11-08T11:35:25.318Z,58.35
2022-11-08T11:36:25.565Z,55.98
2022-11-08T11:37:25.274Z,58.48
2022-11-08T11:38:25.266Z,59.90
2022-11-08T11:39:25.259Z,55.31
2022-11-08T11:40:25.280Z,57.76
2022-11-08T11:41:25.294Z,55.61
2022-11-08T11:42:44.315Z,56.75
2022-11-08T11:43:27.229Z,52.95
2022-11-08T11:44:25.227Z,56.17
2022-11-08T11:45:25.242Z,55.93
2022-11-08T11:46:25.229Z,56.63
2022-11-08T11:47:25.199Z,61.24
2022-11-08T11:48:25.200Z,60.33
2022-11-08T11:49:25.181Z,61.64
2022-11-08T11:50:25.205Z,61.85
2022-11-08T11:51:25.217Z,58.70
2022-11-08T11:52:25.161Z,57.07
2022-11-08T11:53:25.148Z,59.77
2022-11-08T11:54:25.142Z,57.09
2022-11-08T11:55:25.173Z,55.23
2022-11-08T11:56:25.140Z,57.80
2022-11-08T11:57:25.117Z,57.04
2022-11-08T11:58:25.117Z,55.42
2022-11-08T11:59:25.101Z,58.12
2022-11-08T12:00:25.129Z,56.12
2022-11-08T12:01:25.088Z,57.70
2022-11-08T12:02:25.129Z,56.03
2022-11-08T12:03:25.073Z,56.91
2022-11-08T12:04:25.064Z,58.94
2022-11-08T12:05:25.057Z,54.83
2022-11-08T12:06:25.072Z,58.68
2022-11-08T12:07:26.154Z,60.87
2022-11-08T12:08:25.043Z,56.81
2022-11-08T12:09:25.026Z,55.09
2022-11-08T12:10:25.017Z,58.15
2022-11-08T12:11:25.034Z,57.29
2022-11-08T12:12:26.002Z,58.33
2022-11-08T12:13:25.080Z,57.28
2022-11-08T12:14:24.990Z,56.28
2022-11-08T12:15:24.985Z,59.20
2022-11-08T12:16:24.994Z,56.98
2022-11-08T12:17:24.960Z,59.17
2022-11-08T12:18:41.484Z,55.88
2022-11-08T12:19:26.947Z,55.51
2022-11-08T12:20:27.297Z,59.63
2022-11-08T12:21:25.956Z,57.88
2022-11-08T12:22:24.923Z,57.72
2022-11-08T12:23:24.971Z,59.01
2022-11-08T12:24:24.905Z,57.45
2022-11-08T12:25:24.894Z,57.56
2022-11-08T12:26:24.912Z,59.32
2022-11-08T12:27:24.882Z,57.08
2022-11-08T12:28:24.877Z,55.93
2022-11-08T12:29:24.873Z,56.60
2022-11-08T12:30:24.857Z,55.29
2022-11-08T12:31:24.876Z,58.81
2022-11-08T12:32:24.842Z,58.57
2022-11-08T12:33:24.832Z,58.40
2022-11-08T12:34:24.825Z,56.42
2022-11-08T12:35:24.833Z,58.79
2022-11-08T12:36:24.840Z,59.47
2022-11-08T12:37:24.810Z,59.03
2022-11-08T12:38:24.797Z,59.69
2022-11-08T12:39:24.785Z,58.18
2022-11-08T12:40:24.779Z,54.55
2022-11-08T12:41:24.790Z,59.47
2022-11-08T12:42:24.760Z,60.19
2022-11-08T12:43:24.818Z,54.49
2022-11-08T12:44:24.742Z,57.05
2022-11-08T12:45:24.869Z,59.03
2022-11-08T12:46:24.753Z,56.85
2022-11-08T12:47:24.718Z,57.03
2022-11-08T12:48:24.713Z,56.19
2022-11-08T12:49:24.703Z,54.23
2022-11-08T12:50:24.700Z,61.11
2022-11-08T12:51:24.726Z,58.25
2022-11-08T12:52:24.679Z,62.10
2022-11-08T12:53:24.670Z,56.21
2022-11-08T12:54:24.661Z,58.33